createdAt,value
2022-08-02T00:00:18.438Z,1.6
2022-08-02T00:02:20.211Z,1.8
2022-08-02T00:04:22.010Z,1.6
2022-08-02T00:06:23.748Z,1.2
2022-08-02T00:08:29.083Z,1.1
2022-08-02T00:10:30.948Z,1.9
2022-08-02T00:12:32.694Z,1.6
2022-08-02T00:16:38.010Z,1.6
2022-08-02T00:18:37.981Z,1.7
2022-08-02T00:20:39.769Z,1.2
2022-08-02T00:24:46.855Z,1.5
2022-08-02T00:28:50.386Z,1.7
2022-08-02T00:30:52.169Z,2
2022-08-02T00:32:53.933Z,1.2
2022-08-02T00:37:00.981Z,1.6
2022-08-02T00:39:02.777Z,1.7
2022-08-02T00:45:08.117Z,1.7
2022-08-02T00:47:09.913Z,1.7
2022-08-02T00:49:11.790Z,2.1
2022-08-02T01:01:56.991Z,1.6
2022-08-02T01:03:47.503Z,1.8
2022-08-02T01:05:52.640Z,1.7
2022-08-02T01:07:51.099Z,2.1
2022-08-02T01:09:52.859Z,1.6
2022-08-02T01:11:54.652Z,2.2
2022-08-02T01:13:56.508Z,2.4
2022-08-02T01:15:58.391Z,2.3
2022-08-02T01:18:03.852Z,2.2
2022-08-02T01:20:05.718Z,3.5
2022-08-02T01:22:07.661Z,2.8
2022-08-02T01:24:09.467Z,3.5
2022-08-02T01:26:11.229Z,3.2
2022-08-02T01:28:13.093Z,3.2
2022-08-02T01:30:14.944Z,3
2022-08-02T01:34:22.074Z,3.4
2022-08-02T01:36:23.824Z,3.9
2022-08-02T01:38:25.636Z,3.6
2022-08-02T01:44:31.300Z,2.8
2022-08-02T01:46:36.666Z,3.3
2022-08-02T01:50:40.273Z,3.2
2022-08-02T01:51:43.033Z,3.4
2022-08-02T01:53:44.806Z,2.8
2022-08-02T01:55:57.954Z,3
2022-08-02T01:57:48.419Z,3
2022-08-02T01:59:53.716Z,3.7
2022-08-02T02:01:55.607Z,3.7
2022-08-02T02:03:57.288Z,3.4
2022-08-02T02:05:59.011Z,2.5
2022-08-02T02:08:00.843Z,2.9
2022-08-02T02:10:05.150Z,3.1
2022-08-02T02:12:13.615Z,3.2
2022-08-02T02:14:11.763Z,3
2022-08-02T02:16:13.272Z,3.8
2022-08-02T02:18:15.148Z,2.9
2022-08-02T02:20:17.025Z,3.8
2022-08-02T02:26:31.051Z,4.6
2022-08-02T02:28:28.046Z,4
2022-08-02T02:32:31.660Z,4.4
2022-08-02T02:34:33.512Z,4
2022-08-02T02:36:35.362Z,4.5
2022-08-02T02:38:37.107Z,5
2022-08-02T02:40:38.915Z,4
2022-08-02T02:42:49.358Z,4.8
2022-08-02T02:44:46.205Z,5
2022-08-02T02:46:47.965Z,4.5
2022-08-02T02:49:52.367Z,4.9
2022-08-02T02:54:31.145Z,4.8
2022-08-02T02:56:02.541Z,4.1
2022-08-02T02:58:02.930Z,5.1
2022-08-02T03:00:04.700Z,5
2022-08-02T03:02:06.517Z,4.8
2022-08-02T03:04:08.217Z,4
2022-08-02T03:06:15.678Z,5.2
2022-08-02T03:08:11.975Z,4.5
2022-08-02T03:10:17.816Z,5.5
2022-08-02T03:12:20.237Z,5
2022-08-02T03:20:26.682Z,4.6
2022-08-02T03:22:28.503Z,4.7
2022-08-02T03:24:33.943Z,4.8
2022-08-02T03:32:41.069Z,6.4
2022-08-02T03:34:42.841Z,5.9
2022-08-02T03:40:51.648Z,6.2
2022-08-02T03:43:57.481Z,5
2022-08-02T03:45:57.846Z,6.6
2022-08-02T03:47:59.716Z,6.2
2022-08-02T03:50:01.620Z,6
2022-08-02T03:52:07.038Z,5.8
2022-08-02T03:54:08.792Z,5.3
2022-08-02T03:56:10.788Z,5.1
2022-08-02T03:58:12.568Z,6
2022-08-02T04:00:14.277Z,5.7
2022-08-02T04:02:16.043Z,5.3
2022-08-02T04:04:17.794Z,6.2
2022-08-02T04:06:27.259Z,5.5
2022-08-02T04:08:36.045Z,5.5
2022-08-02T04:18:34.229Z,5.5
2022-08-02T04:22:41.795Z,5.9
2022-08-02T04:28:47.053Z,5.8
2022-08-02T04:32:50.700Z,5.9
2022-08-02T04:35:18.752Z,6.5
2022-08-02T04:36:57.766Z,5
2022-08-02T04:38:59.478Z,5.1
2022-08-02T04:57:52.591Z,5.6
2022-08-02T05:03:51.362Z,5.6
2022-08-02T05:07:54.905Z,4.7
2022-08-02T05:09:56.647Z,4.9
2022-08-02T05:11:58.467Z,5.6
2022-08-02T05:14:00.254Z,5
2022-08-02T05:18:07.331Z,4.9
2022-08-02T05:20:09.134Z,4.7
2022-08-02T05:22:11.113Z,5.5
2022-08-02T05:24:12.709Z,4.9
2022-08-02T05:26:14.491Z,4.1
2022-08-02T05:28:16.317Z,5
2022-08-02T05:30:21.596Z,4.2
2022-08-02T05:32:23.708Z,4.1
2022-08-02T05:34:25.197Z,5
2022-08-02T05:35:27.878Z,5.1
2022-08-02T05:37:31.888Z,3.9
2022-08-02T05:39:31.862Z,3.8
2022-08-02T05:45:40.355Z,3.3
2022-08-02T05:47:42.151Z,3.7
2022-08-02T05:49:43.940Z,3.3
2022-08-02T05:51:45.772Z,3.5
2022-08-02T05:53:47.675Z,3.4
2022-08-02T05:55:49.377Z,3.1
2022-08-02T05:59:56.490Z,3.4
2022-08-02T06:04:00.134Z,3.9
2022-08-02T06:06:01.902Z,3.3
2022-08-02T06:08:03.727Z,2.4
2022-08-02T06:10:05.521Z,2.7
2022-08-02T06:12:10.835Z,3
2022-08-02T06:14:12.662Z,2.6
2022-08-02T06:16:15.003Z,2
2022-08-02T06:18:16.298Z,2.1
2022-08-02T06:20:18.093Z,2.6
2022-08-02T06:22:34.858Z,2.4
2022-08-02T06:24:21.724Z,2.2
2022-08-02T06:26:26.999Z,2.1
2022-08-02T06:28:28.818Z,2.1
2022-08-02T06:30:30.623Z,2.2
2022-08-02T06:31:33.233Z,3
2022-08-02T06:33:35.036Z,2.7
2022-08-02T06:35:36.853Z,2.3
2022-08-02T06:37:38.672Z,2.8
2022-08-02T06:39:43.951Z,2.7
2022-08-02T06:45:49.314Z,1.8
2022-08-02T06:53:59.959Z,2
2022-08-02T07:04:08.798Z,1.9
2022-08-02T07:06:10.548Z,1.5
2022-08-02T07:14:22.705Z,1.8
2022-08-02T07:16:22.938Z,1.6
2022-08-02T07:18:24.560Z,1.5
2022-08-02T07:20:26.225Z,1.7
2022-08-02T07:22:31.495Z,1.3
2022-08-02T07:24:33.188Z,1.4
2022-08-02T07:26:45.077Z,2
2022-08-02T07:27:37.497Z,1.2
2022-08-02T07:29:46.071Z,1
2022-08-02T07:33:46.799Z,1.2
2022-08-02T07:37:55.307Z,1
2022-08-02T07:39:51.176Z,0.9
2022-08-02T07:43:54.568Z,1.4
2022-08-02T07:50:03.335Z,1.2
2022-08-02T07:52:06.840Z,0.7
2022-08-02T07:58:11.075Z,1.1
2022-08-02T08:12:26.658Z,0.7
2022-08-02T08:14:28.336Z,0.4
2022-08-02T08:16:29.952Z,0.7
2022-08-02T08:18:35.175Z,1.6
2022-08-02T08:20:36.812Z,0.6
2022-08-02T08:22:38.481Z,0.8
2022-08-02T08:25:01.481Z,1.1
2022-08-02T08:27:03.143Z,1.1
2022-08-02T08:29:04.778Z,1.1
2022-08-02T08:31:09.951Z,1.1
2022-08-02T08:33:11.574Z,2.1
2022-08-02T08:35:13.241Z,1.1
2022-08-02T08:37:17.718Z,1
2022-08-02T08:39:16.525Z,1.7
2022-08-02T08:41:18.167Z,1.1
2022-08-02T08:43:19.791Z,1
2022-08-02T08:45:25.001Z,1
2022-08-02T08:53:36.885Z,1
2022-08-02T08:55:33.228Z,1.6
2022-08-02T09:01:49.944Z,1.1
2022-08-02T09:03:43.322Z,1.3
2022-08-02T09:07:46.613Z,1
2022-08-02T09:13:55.100Z,0.9
2022-08-02T09:23:04.322Z,0.9
2022-08-02T09:25:05.987Z,0.7
2022-08-02T09:27:11.200Z,0.8
2022-08-02T09:39:21.247Z,1.2
2022-08-02T09:47:31.397Z,0.9
2022-08-02T09:51:34.661Z,1.3
2022-08-02T09:53:36.318Z,1.4
2022-08-02T09:57:43.182Z,1.2
2022-08-02T09:59:44.842Z,1.6
2022-08-02T10:07:51.514Z,1.1
2022-08-02T10:15:02.626Z,1.3
2022-08-02T10:17:04.277Z,2.1
2022-08-02T10:19:05.954Z,1.3
2022-08-02T10:23:12.860Z,1.2
2022-08-02T10:25:14.450Z,2.3
2022-08-02T10:33:21.104Z,0.8
2022-08-02T10:35:25.901Z,1
2022-08-02T10:37:27.956Z,1
2022-08-02T10:41:31.295Z,1
2022-08-02T10:43:32.962Z,1.4
2022-08-02T10:45:34.602Z,1.4
2022-08-02T10:47:36.271Z,1.2
2022-08-02T10:49:40.109Z,0.8
2022-08-02T10:51:43.099Z,2
2022-08-02T10:53:44.871Z,1.6
2022-08-02T10:55:46.521Z,0.9
2022-08-02T10:57:49.922Z,1.8
2022-08-02T10:59:49.745Z,2.1
2022-08-02T11:01:51.431Z,1.5
2022-08-02T11:03:53.075Z,1.5
2022-08-02T11:05:58.286Z,1.1
2022-08-02T11:07:59.957Z,1.8
2022-08-02T11:10:01.615Z,1.3
2022-08-02T11:11:04.197Z,1.6
2022-08-02T11:13:05.884Z,1.5
2022-08-02T11:15:08.066Z,1.5
2022-08-02T11:19:14.385Z,1.1
2022-08-02T11:27:21.852Z,1.4
2022-08-02T11:29:22.712Z,1.5
2022-08-02T11:31:24.352Z,1.1
2022-08-02T11:35:31.168Z,1.2
2022-08-02T11:37:32.818Z,1.4
2022-08-02T11:39:34.499Z,0.8
2022-08-02T11:41:47.237Z,1.2
2022-08-02T11:43:37.772Z,1
2022-08-02T11:45:39.445Z,1.3
2022-08-02T11:47:44.624Z,1.1
2022-08-02T11:55:50.840Z,0.9
2022-08-02T11:58:04.899Z,1.1
2022-08-02T11:59:53.967Z,1
2022-08-02T12:04:00.710Z,0.8
2022-08-02T12:06:06.473Z,1.6
2022-08-02T12:08:25.559Z,1.1
2022-08-02T12:20:38.439Z,1.5
2022-08-02T12:26:43.296Z,1
2022-08-02T12:32:51.457Z,0.9
2022-08-02T12:34:53.174Z,1.2
2022-08-02T12:40:57.640Z,1
2022-08-02T12:43:02.558Z,0.8
2022-08-02T12:47:05.625Z,1.7
2022-08-02T12:49:18.039Z,0.7
2022-08-02T12:53:10.214Z,0.8
2022-08-02T12:55:11.742Z,0.8
2022-08-02T12:57:16.690Z,0.6
2022-08-02T12:59:18.189Z,0.6
2022-08-02T13:01:19.774Z,0.7
2022-08-02T13:02:22.290Z,0.6
2022-08-02T13:04:23.667Z,0.8
2022-08-02T13:08:26.655Z,0.6
2022-08-02T13:10:31.577Z,0.8
2022-08-02T13:16:36.161Z,0.8
2022-08-02T13:18:37.684Z,0.7
2022-08-02T13:22:52.719Z,0.9
2022-08-02T13:24:56.472Z,0.3
2022-08-02T13:28:48.778Z,0.4
2022-08-02T13:32:51.870Z,0.6
2022-08-02T13:34:53.392Z,0.4
2022-08-02T13:39:00.210Z,0.5
2022-08-02T13:49:07.970Z,0.5
2022-08-02T13:51:09.321Z,0.4
2022-08-02T13:53:16.013Z,0.5
2022-08-02T13:55:17.497Z,0.3
2022-08-02T13:57:19.133Z,0.5
2022-08-02T13:58:21.477Z,0.6
2022-08-02T14:00:35.049Z,0.7
2022-08-02T14:08:32.449Z,0.4
2022-08-02T14:14:36.959Z,0.4
2022-08-02T14:18:39.964Z,0.6
2022-08-02T14:26:49.797Z,0.5
2022-08-02T14:28:51.106Z,0.9
2022-08-02T14:39:02.096Z,0.4
2022-08-02T14:41:03.576Z,0.6
2022-08-02T14:47:08.181Z,0.4
2022-08-02T14:49:14.382Z,0.6
2022-08-02T14:51:14.609Z,0.4
2022-08-02T14:53:16.120Z,0.2
2022-08-02T14:54:18.579Z,0.2
2022-08-02T14:58:21.587Z,0.4
2022-08-02T15:00:23.096Z,0.4
2022-08-02T15:02:28.042Z,0.6
2022-08-02T15:06:31.037Z,0.6
2022-08-02T15:08:32.536Z,0.4
2022-08-02T15:10:34.026Z,0.3
2022-08-02T15:12:35.547Z,0.4
2022-08-02T15:14:37.060Z,0.5
2022-08-02T15:16:56.117Z,0.4
2022-08-02T15:18:43.479Z,0.7
2022-08-02T15:20:56.213Z,0.4
2022-08-02T15:22:46.516Z,0.4
2022-08-02T15:24:48.035Z,0.3
2022-08-02T15:26:50.516Z,0.5
2022-08-02T15:28:55.522Z,0.6
2022-08-02T15:30:56.861Z,0.3
2022-08-02T15:32:58.300Z,0.2
2022-08-02T15:34:59.780Z,0.5
2022-08-02T15:39:02.784Z,0.6
2022-08-02T15:53:31.865Z,0.3
2022-08-02T16:01:46.542Z,0.7
2022-08-02T16:03:42.826Z,1
2022-08-02T16:07:45.848Z,0.8
2022-08-02T16:11:52.322Z,0.4
2022-08-02T16:13:54.450Z,0.8
2022-08-02T16:15:55.319Z,0.6
2022-08-02T16:19:58.487Z,1.2
2022-08-02T16:21:59.881Z,0.4
2022-08-02T16:24:03.345Z,0.4
2022-08-02T16:28:08.219Z,0.7
2022-08-02T16:30:09.369Z,0.7
2022-08-02T16:32:11.292Z,0.7
2022-08-02T16:34:12.426Z,0.6
2022-08-02T16:36:13.958Z,1
2022-08-02T16:38:15.463Z,0.6
2022-08-02T16:40:20.453Z,0.4
2022-08-02T16:42:25.622Z,0.8
2022-08-02T16:44:29.196Z,0.6
2022-08-02T16:45:25.933Z,0.4
2022-08-02T16:47:43.365Z,0.6
2022-08-02T16:50:05.935Z,0.7
2022-08-02T16:51:31.029Z,0.4
2022-08-02T16:53:37.270Z,0.7
2022-08-02T16:55:36.964Z,1.3
2022-08-02T16:57:42.745Z,0.5
2022-08-02T17:08:16.476Z,0.7
2022-08-02T17:10:03.437Z,0.5
2022-08-02T17:16:16.233Z,1.3
2022-08-02T17:17:57.347Z,0.5
2022-08-02T17:19:58.920Z,0.7
2022-08-02T17:22:03.849Z,0.8
2022-08-02T17:26:07.050Z,0.6
2022-08-02T17:30:11.026Z,0.7
2022-08-02T17:34:13.250Z,0.8
2022-08-02T17:38:26.595Z,0.3
2022-08-02T17:41:37.773Z,0.6
2022-08-02T17:43:29.112Z,0.6
2022-08-02T17:47:30.954Z,0.9
2022-08-02T17:52:48.039Z,0.7
2022-08-02T17:55:42.449Z,0.6
2022-08-02T17:57:56.902Z,0.6
2022-08-02T17:59:42.921Z,0.6
2022-08-02T18:03:49.822Z,0.6
2022-08-02T18:07:56.729Z,0.8
2022-08-02T18:09:54.928Z,0.8
2022-08-02T18:11:56.582Z,0.9
2022-08-02T18:13:58.296Z,0.5
2022-08-02T18:15:59.994Z,0.7
2022-08-02T18:18:05.200Z,0.7
2022-08-02T18:20:10.534Z,1.1
2022-08-02T18:22:08.609Z,1.5
2022-08-02T18:26:12.057Z,1.3
2022-08-02T18:30:17.606Z,0.8
2022-08-02T18:33:55.240Z,1
2022-08-02T18:36:24.975Z,0.7
2022-08-02T18:37:26.738Z,0.6
2022-08-02T18:41:30.178Z,0.7
2022-08-02T18:43:31.894Z,0.7
2022-08-02T18:46:04.635Z,0.8
2022-08-02T18:47:38.859Z,1.1
2022-08-02T18:49:46.912Z,1
2022-08-02T18:51:42.274Z,0.7
2022-08-02T18:53:43.979Z,0.8
2022-08-02T18:58:02.002Z,0.8
2022-08-02T19:05:57.833Z,0.7
2022-08-02T19:07:59.563Z,1.5
2022-08-02T19:10:01.309Z,0.7
2022-08-02T19:16:09.981Z,1
2022-08-02T19:20:19.613Z,0.9
2022-08-02T19:22:18.199Z,1.3
2022-08-02T19:26:18.669Z,0.7
2022-08-02T19:28:26.319Z,0.7
2022-08-02T19:30:25.919Z,0.8
2022-08-02T19:32:41.764Z,1
2022-08-02T19:34:51.146Z,1.1
2022-08-02T19:36:52.814Z,0.8
2022-08-02T19:38:54.592Z,0.9
2022-08-02T19:41:01.791Z,1.2
2022-08-02T19:51:10.124Z,0.9
2022-08-02T19:53:11.846Z,1.6
2022-08-02T19:55:58.841Z,1.7
2022-08-02T19:59:20.579Z,1.2
2022-08-02T20:07:54.391Z,1.7
2022-08-02T20:11:35.340Z,1.4
2022-08-02T20:15:56.391Z,0.7
2022-08-02T20:23:48.484Z,1.6
2022-08-02T20:27:51.951Z,1.1
2022-08-02T20:28:54.590Z,1
2022-08-02T20:30:56.332Z,0.7
2022-08-02T20:33:02.556Z,1
2022-08-02T20:37:59.089Z,1.8
2022-08-02T20:41:08.537Z,1.2
2022-08-02T20:43:10.320Z,2.8
2022-08-02T20:49:23.252Z,1.3
2022-08-02T20:51:33.328Z,1.5
2022-08-02T20:53:23.787Z,1.2
2022-08-02T20:59:27.822Z,1.2
2022-08-02T21:01:37.221Z,0.9
2022-08-02T21:03:39.425Z,1
2022-08-02T21:07:38.389Z,1.2
2022-08-02T21:09:53.587Z,1.2
2022-08-02T21:13:46.381Z,1.2
2022-08-02T21:15:45.474Z,1.2
2022-08-02T21:17:52.931Z,1.1
2022-08-02T21:21:54.257Z,1.2
2022-08-02T21:23:56.037Z,1
2022-08-02T21:24:58.683Z,1.6
2022-08-02T21:27:00.466Z,1.2
2022-08-02T21:33:17.826Z,1.2
2022-08-02T21:37:12.797Z,1.3
2022-08-02T21:43:18.092Z,1.4
2022-08-02T21:45:20.156Z,1.9
2022-08-02T21:47:25.396Z,0.8
2022-08-02T21:50:08.761Z,1.2
2022-08-02T21:51:29.054Z,1
2022-08-02T21:53:42.474Z,1.1
2022-08-02T21:56:00.946Z,1.9
2022-08-02T21:57:34.896Z,1.6
2022-08-02T22:09:48.313Z,1.4
2022-08-02T22:11:50.156Z,1.5
2022-08-02T22:17:59.987Z,1.6
2022-08-02T22:20:00.734Z,1.6
2022-08-02T22:33:17.532Z,1.5
2022-08-02T22:38:16.133Z,1
2022-08-02T22:39:22.881Z,1.2
2022-08-02T22:41:24.664Z,1.4
2022-08-02T22:43:31.397Z,1
2022-08-02T22:47:38.537Z,1
2022-08-02T22:49:37.598Z,1
2022-08-02T22:53:38.850Z,1.2
2022-08-02T22:57:50.519Z,1.1
2022-08-02T22:59:00.020Z,0.9
2022-08-02T22:59:48.499Z,0.8
2022-08-02T23:01:49.554Z,1.2
2022-08-02T23:03:51.266Z,1.2
2022-08-02T23:05:53.039Z,0.9
2022-08-02T23:07:54.829Z,1
2022-08-02T23:18:29.425Z,1.4
2022-08-02T23:24:38.290Z,1.5
2022-08-02T23:26:40.142Z,1.1
2022-08-02T23:30:43.599Z,1.7
2022-08-02T23:36:48.969Z,1.1
2022-08-02T23:38:54.245Z,1.3
2022-08-02T23:40:56.016Z,1.1
2022-08-02T23:42:57.822Z,1
2022-08-02T23:44:59.577Z,0.6
2022-08-02T23:47:01.410Z,1.3
2022-08-02T23:53:10.231Z,0.9
2022-08-02T23:55:12.026Z,1.2
2022-08-02T23:57:20.140Z,1.6
2022-08-02T23:59:15.587Z,0.9
